Time;durP1;ratioP1;P1;durP2;ratioP2;P2;SDS_P1;SDS_P2;PMS_P1;PMS_P2;Temp;Humidity;BMP_temperature;BMP_pressure;BME280_temperature;BME280_humidity;BME280_pressure;Samples;Min_cycle;Max_cycle;Signal;HPM_P1;HPM_P2
2022/04/01 00:00:10;;;;;;;1.15;1.00;;;;;;;;;;5106245;27;20031;-73
2022/04/01 00:02:36;;;;;;;4.18;1.42;;;;;;;;;;5088837;27;20077;-75
2022/04/01 00:05:02;;;;;;;1.10;0.93;;;;;;;;;;5104693;27;20067;-77
2022/04/01 00:07:28;;;;;;;2.20;0.73;;;;;;;;;;5104780;27;20070;-81
2022/04/01 00:09:54;;;;;;;2.10;0.70;;;;;;;;;;5102449;28;20550;-74
2022/04/01 00:12:20;;;;;;;1.75;0.90;;;;;;;;;;5100414;27;20195;-74
2022/04/01 00:14:46;;;;;;;2.15;1.20;;;;;;;;;;5105337;28;20039;-78
2022/04/01 00:17:12;;;;;;;1.08;0.73;;;;;;;;;;5088851;27;20039;-77
2022/04/01 00:19:39;;;;;;;1.52;0.98;;;;;;;;;;5103318;27;20122;-75
2022/04/01 00:22:05;;;;;;;2.28;1.33;;;;;;;;;;5103796;27;20031;-75
2022/04/01 00:24:32;;;;;;;1.15;1.00;;;;;;;;;;5102035;28;20075;-78
2022/04/01 00:26:58;;;;;;;1.52;0.93;;;;;;;;;;5088102;27;20134;-74
2022/04/01 00:29:24;;;;;;;1.00;0.75;;;;;;;;;;5103947;27;20078;-72
2022/04/01 00:31:58;;;;;;;0.82;0.73;;;;;;;;;;5087079;27;20067;-78
2022/04/01 00:34:26;;;;;;;1.42;0.98;;;;;;;;;;5103249;27;20043;-73
2022/04/01 00:36:52;;;;;;;1.08;0.93;;;;;;;;;;5105648;27;20089;-69
2022/04/01 00:39:19;;;;;;;5.10;2.08;;;;;;;;;;5102706;27;20031;-70
2022/04/01 00:41:46;;;;;;;1.23;0.68;;;;;;;;;;5103369;28;20379;-77
2022/04/01 00:44:15;;;;;;;1.52;1.40;;;;;;;;;;5101331;27;20071;-72
2022/04/01 00:46:42;;;;;;;4.15;1.13;;;;;;;;;;5099214;27;20505;-78
2022/04/01 00:49:08;;;;;;;0.98;0.82;;;;;;;;;;5105068;27;20518;-74
2022/04/01 00:51:37;;;;;;;2.22;1.30;;;;;;;;;;5105336;27;20052;-74
2022/04/01 00:54:03;;;;;;;1.52;1.15;;;;;;;;;;5108288;27;20387;-72
2022/04/01 00:56:31;;;;;;;1.75;1.23;;;;;;;;;;5086467;27;20046;-74
2022/04/01 00:58:57;;;;;;;2.00;0.70;;;;;;;;;;5104372;27;20069;-75
2022/04/01 01:01:24;;;;;;;1.02;0.80;;;;;;;;;;5085428;28;20047;-72
2022/04/01 01:03:50;;;;;;;3.40;0.77;;;;;;;;;;5103292;28;20162;-73
2022/04/01 01:06:19;;;;;;;1.63;1.00;;;;;;;;;;5104241;28;20067;-72
2022/04/01 01:08:45;;;;;;;2.95;1.10;;;;;;;;;;5102929;28;20038;-79
2022/04/01 01:11:11;;;;;;;0.90;0.80;;;;;;;;;;5103159;28;20031;-75
2022/04/01 01:13:38;;;;;;;2.70;0.73;;;;;;;;;;5087267;28;20027;-78
2022/04/01 01:16:05;;;;;;;2.22;2.03;;;;;;;;;;5104364;28;20168;-76
2022/04/01 01:18:31;;;;;;;3.75;0.80;;;;;;;;;;5086072;28;20082;-76
2022/04/01 01:20:57;;;;;;;1.58;1.23;;;;;;;;;;5101658;28;20044;-77
2022/04/01 01:23:30;;;;;;;1.40;1.05;;;;;;;;;;5104183;28;20476;-75
2022/04/01 01:25:56;;;;;;;1.25;0.85;;;;;;;;;;5086461;28;20333;-73
2022/04/01 01:28:23;;;;;;;2.70;1.00;;;;;;;;;;5105165;28;20099;-78
2022/04/01 01:30:49;;;;;;;1.10;1.00;;;;;;;;;;5086282;28;20039;-75
2022/04/01 01:33:15;;;;;;;4.53;1.00;;;;;;;;;;5104704;28;20031;-76
2022/04/01 01:35:42;;;;;;;1.05;0.57;;;;;;;;;;5084603;28;20039;-76
2022/04/01 01:38:08;;;;;;;2.20;1.00;;;;;;;;;;5085663;28;20039;-72
2022/04/01 01:40:34;;;;;;;2.72;1.17;;;;;;;;;;5101419;28;20043;-78
2022/04/01 01:43:00;;;;;;;2.55;1.55;;;;;;;;;;5086669;28;20042;-73
2022/04/01 01:45:29;;;;;;;1.23;0.95;;;;;;;;;;5085444;28;20044;-75
2022/04/01 01:47:55;;;;;;;1.45;1.00;;;;;;;;;;5102788;28;20031;-75
2022/04/01 01:55:50;;;;;;;1.02;0.93;;;;;;;;;;5101599;28;20499;-77
2022/04/01 01:58:18;;;;;;;1.65;1.15;;;;;;;;;;5100790;28;20038;-76
2022/04/01 02:00:45;;;;;;;1.27;0.98;;;;;;;;;;5104358;28;20046;-77
2022/04/01 02:03:11;;;;;;;0.50;0.50;;;;;;;;;;5105014;28;20384;-77
2022/04/01 02:05:37;;;;;;;1.25;0.90;;;;;;;;;;5101366;28;20036;-72
2022/04/01 02:08:05;;;;;;;2.67;1.10;;;;;;;;;;5102988;28;20469;-76
2022/04/01 02:10:32;;;;;;;2.45;1.90;;;;;;;;;;5104050;28;20051;-75
2022/04/01 02:12:58;;;;;;;4.20;1.02;;;;;;;;;;5102516;28;20376;-74
2022/04/01 02:15:24;;;;;;;1.27;0.90;;;;;;;;;;5102697;28;20067;-76
2022/04/01 02:17:50;;;;;;;3.40;1.60;;;;;;;;;;5085839;28;20035;-70
2022/04/01 02:20:16;;;;;;;1.88;1.08;;;;;;;;;;5102706;28;20432;-75
2022/04/01 02:22:43;;;;;;;1.15;0.68;;;;;;;;;;5107056;27;20083;-76
2022/04/01 02:25:11;;;;;;;1.42;0.98;;;;;;;;;;5089307;27;20035;-75
2022/04/01 02:27:37;;;;;;;1.30;0.88;;;;;;;;;;5105188;27;20058;-77
2022/04/01 02:30:10;;;;;;;2.80;1.42;;;;;;;;;;5107948;27;20117;-76
2022/04/01 02:32:36;;;;;;;2.22;0.98;;;;;;;;;;5091098;27;20483;-75
2022/04/01 02:35:04;;;;;;;3.40;1.50;;;;;;;;;;5107317;27;20479;-74
2022/04/01 02:37:30;;;;;;;1.95;1.08;;;;;;;;;;5106421;27;20047;-75
2022/04/01 02:39:56;;;;;;;2.38;1.17;;;;;;;;;;5090858;27;20047;-78
2022/04/01 02:42:22;;;;;;;1.58;0.88;;;;;;;;;;5088010;27;20051;-75
2022/04/01 02:44:48;;;;;;;3.88;1.40;;;;;;;;;;5105261;27;20023;-78
2022/04/01 02:47:14;;;;;;;1.80;1.15;;;;;;;;;;5107896;27;20517;-75
2022/04/01 02:49:40;;;;;;;1.13;1.00;;;;;;;;;;5107205;27;20360;-74
2022/04/01 02:52:06;;;;;;;2.67;1.17;;;;;;;;;;5107568;27;20071;-75
2022/04/01 02:54:35;;;;;;;1.30;1.20;;;;;;;;;;5106930;27;20035;-76
2022/04/01 02:57:02;;;;;;;2.10;1.30;;;;;;;;;;5103037;27;20069;-77
2022/04/01 02:59:29;;;;;;;2.35;1.17;;;;;;;;;;5107199;27;20542;-77
2022/04/01 03:01:55;;;;;;;3.25;1.63;;;;;;;;;;5090013;27;20523;-77
2022/04/01 03:04:22;;;;;;;3.05;1.13;;;;;;;;;;5087271;27;20035;-78
2022/04/01 03:06:49;;;;;;;4.47;1.80;;;;;;;;;;5106631;27;20034;-77
2022/04/01 03:09:15;;;;;;;2.97;1.48;;;;;;;;;;5111114;27;20123;-76
2022/04/01 03:11:41;;;;;;;6.32;1.77;;;;;;;;;;5106795;27;20522;-76
2022/04/01 03:14:08;;;;;;;0.60;0.60;;;;;;;;;;5109027;27;20168;-77
2022/04/01 03:16:34;;;;;;;0.93;0.90;;;;;;;;;;5090442;27;20047;-77
2022/04/01 03:19:01;;;;;;;2.63;1.35;;;;;;;;;;5106876;27;20035;-78
2022/04/01 03:21:29;;;;;;;2.15;1.30;;;;;;;;;;5109432;27;20035;-75
2022/04/01 03:23:55;;;;;;;0.65;0.65;;;;;;;;;;5105282;27;20038;-76
2022/04/01 03:26:21;;;;;;;0.55;0.52;;;;;;;;;;5087638;27;20399;-75
2022/04/01 03:28:48;;;;;;;4.93;0.95;;;;;;;;;;5105713;27;20042;-75
2022/04/01 03:31:14;;;;;;;1.35;0.65;;;;;;;;;;5105792;27;20402;-77
2022/04/01 03:33:41;;;;;;;2.63;1.20;;;;;;;;;;5108315;27;20393;-77
2022/04/01 03:36:11;;;;;;;1.45;1.00;;;;;;;;;;5106118;27;20040;-75
2022/04/01 03:38:38;;;;;;;2.45;0.95;;;;;;;;;;5104895;27;20051;-77
2022/04/01 03:41:05;;;;;;;3.88;1.10;;;;;;;;;;5108265;27;20054;-77
2022/04/01 03:43:34;;;;;;;3.30;1.00;;;;;;;;;;5106250;27;20065;-77
2022/04/01 03:46:04;;;;;;;0.70;0.60;;;;;;;;;;5104030;28;20035;-77
2022/04/01 03:48:35;;;;;;;1.90;1.20;;;;;;;;;;5105779;27;20084;-73
2022/04/01 03:51:01;;;;;;;1.90;1.30;;;;;;;;;;5084159;27;20067;-76
2022/04/01 03:53:29;;;;;;;9.38;1.25;;;;;;;;;;5105158;27;20043;-77
2022/04/01 03:55:56;;;;;;;2.85;1.02;;;;;;;;;;5090123;27;20043;-78
2022/04/01 03:58:27;;;;;;;2.53;0.95;;;;;;;;;;5104043;27;20047;-78
2022/04/01 04:00:54;;;;;;;0.85;0.75;;;;;;;;;;5104333;27;20542;-77
2022/04/01 04:03:20;;;;;;;1.83;0.70;;;;;;;;;;5106580;27;20494;-76
2022/04/01 04:05:48;;;;;;;0.63;0.60;;;;;;;;;;5103469;27;20034;-76
2022/04/01 04:08:17;;;;;;;3.60;1.10;;;;;;;;;;5107329;27;20065;-77
2022/04/01 04:10:46;;;;;;;2.90;1.20;;;;;;;;;;5103011;27;20039;-75
2022/04/01 04:13:12;;;;;;;1.85;1.10;;;;;;;;;;5104005;27;20039;-77
2022/04/01 04:15:49;;;;;;;0.85;0.82;;;;;;;;;;5105282;27;20169;-76
2022/04/01 04:18:16;;;;;;;2.08;0.85;;;;;;;;;;5105066;27;20118;-78
2022/04/01 04:21:04;;;;;;;1.17;0.77;;;;;;;;;;5083683;27;20028;-75
2022/04/01 04:23:34;;;;;;;1.25;0.70;;;;;;;;;;5084208;28;20035;-76
2022/04/01 04:26:13;;;;;;;1.13;0.60;;;;;;;;;;5088249;27;20139;-77
2022/04/01 04:28:43;;;;;;;1.65;0.88;;;;;;;;;;5088100;27;20104;-77
2022/04/01 04:31:09;;;;;;;1.95;1.27;;;;;;;;;;5104534;27;20035;-74
2022/04/01 04:33:38;;;;;;;0.98;0.60;;;;;;;;;;5104881;27;20116;-79
2022/04/01 04:36:05;;;;;;;2.78;0.90;;;;;;;;;;5100391;27;20039;-79
2022/04/01 04:38:38;;;;;;;3.03;1.20;;;;;;;;;;5100323;27;20126;-77
2022/04/01 04:41:08;;;;;;;4.75;1.30;;;;;;;;;;5098854;27;20074;-77
2022/04/01 04:43:38;;;;;;;1.20;0.50;;;;;;;;;;5103464;27;20408;-79
2022/04/01 04:46:04;;;;;;;0.63;0.57;;;;;;;;;;5083591;28;20063;-77
2022/04/01 04:48:31;;;;;;;3.50;0.95;;;;;;;;;;5103192;27;20046;-75
2022/04/01 04:50:59;;;;;;;4.95;1.30;;;;;;;;;;5104071;27;20047;-77
2022/04/01 04:53:28;;;;;;;1.08;0.80;;;;;;;;;;5085729;27;20044;-74
2022/04/01 04:55:54;;;;;;;0.82;0.70;;;;;;;;;;5102605;28;20039;-72
2022/04/01 04:58:21;;;;;;;2.53;0.63;;;;;;;;;;5104400;27;20122;-80
2022/04/01 05:00:53;;;;;;;1.15;0.57;;;;;;;;;;5086193;28;20031;-77
2022/04/01 05:03:46;;;;;;;2.33;0.73;;;;;;;;;;5104545;27;20043;-73
2022/04/01 05:06:16;;;;;;;3.20;1.27;;;;;;;;;;5085357;28;20027;-78
2022/04/01 05:09:07;;;;;;;2.70;1.10;;;;;;;;;;5082681;28;20080;-79
2022/04/01 05:11:33;;;;;;;1.95;0.75;;;;;;;;;;5085889;28;20043;-76
2022/04/01 05:14:00;;;;;;;0.85;0.60;;;;;;;;;;5103722;28;20122;-78
2022/04/01 05:16:33;;;;;;;1.85;0.63;;;;;;;;;;5102498;28;20398;-76
2022/04/01 05:19:19;;;;;;;2.10;0.70;;;;;;;;;;5104668;28;20039;-68
2022/04/01 05:21:48;;;;;;;1.10;0.80;;;;;;;;;;5100032;28;20035;-74
2022/04/01 05:24:16;;;;;;;0.45;0.40;;;;;;;;;;5101763;28;20035;-76
2022/04/01 05:26:43;;;;;;;4.47;0.95;;;;;;;;;;5099322;28;20028;-72
2022/04/01 05:29:25;;;;;;;5.60;1.63;;;;;;;;;;5103187;28;20070;-79
2022/04/01 05:31:58;;;;;;;0.80;0.63;;;;;;;;;;5084927;28;20122;-73
2022/04/01 05:34:37;;;;;;;3.08;0.73;;;;;;;;;;5099684;28;20044;-74
2022/04/01 05:37:03;;;;;;;4.57;1.25;;;;;;;;;;5081918;28;20440;-76
2022/04/01 05:39:29;;;;;;;3.45;1.92;;;;;;;;;;5102675;28;20046;-76
2022/04/01 05:41:56;;;;;;;5.15;1.58;;;;;;;;;;5086180;28;20048;-76
2022/04/01 05:44:23;;;;;;;0.77;0.77;;;;;;;;;;5098890;28;20046;-79
2022/04/01 05:46:51;;;;;;;2.22;0.82;;;;;;;;;;5100639;28;20043;-78
2022/04/01 05:49:18;;;;;;;0.95;0.73;;;;;;;;;;5087942;28;20047;-75
2022/04/01 05:51:46;;;;;;;1.30;0.60;;;;;;;;;;5101883;28;20043;-74
2022/04/01 05:54:12;;;;;;;2.72;0.85;;;;;;;;;;5103468;27;20122;-71
2022/04/01 05:56:41;;;;;;;1.63;0.93;;;;;;;;;;5104048;28;20036;-74
2022/04/01 05:59:07;;;;;;;1.27;0.77;;;;;;;;;;5105585;27;20386;-74
2022/04/01 06:01:52;;;;;;;2.97;0.70;;;;;;;;;;5089021;27;20032;-79
2022/04/01 06:04:37;;;;;;;1.10;0.80;;;;;;;;;;5089098;27;20379;-75
2022/04/01 06:07:11;;;;;;;0.98;0.65;;;;;;;;;;5090257;27;20039;-77
2022/04/01 06:09:53;;;;;;;1.65;0.65;;;;;;;;;;5089684;27;20039;-79
2022/04/01 06:12:19;;;;;;;2.30;0.60;;;;;;;;;;5088696;27;20055;-78
2022/04/01 06:15:14;;;;;;;1.40;0.90;;;;;;;;;;5104834;27;20040;-76
2022/04/01 06:18:01;;;;;;;0.70;0.70;;;;;;;;;;5070952;27;20093;-78
2022/04/01 06:20:28;;;;;;;1.17;1.08;;;;;;;;;;5036895;28;20052;-76
2022/04/01 06:23:06;;;;;;;2.80;0.73;;;;;;;;;;5066971;28;20035;-75
2022/04/01 06:25:34;;;;;;;2.42;0.70;;;;;;;;;;5087985;27;20043;-77
2022/04/01 06:28:20;;;;;;;1.30;0.85;;;;;;;;;;5107166;27;20135;-74
2022/04/01 06:30:48;;;;;;;1.42;0.90;;;;;;;;;;5086470;27;20035;-76
2022/04/01 06:33:19;;;;;;;2.40;0.95;;;;;;;;;;5105297;27;20035;-74
2022/04/01 06:35:54;;;;;;;0.90;0.50;;;;;;;;;;5102946;27;20093;-77
2022/04/01 06:38:39;;;;;;;1.13;0.68;;;;;;;;;;5104392;27;20486;-75
2022/04/01 06:41:09;;;;;;;4.97;0.90;;;;;;;;;;5085751;27;20395;-77
2022/04/01 06:43:35;;;;;;;1.45;0.65;;;;;;;;;;5104866;27;20100;-78
2022/04/01 06:46:02;;;;;;;1.48;0.80;;;;;;;;;;5090231;27;20122;-74
2022/04/01 06:48:29;;;;;;;1.95;0.60;;;;;;;;;;5105658;27;20035;-74
2022/04/01 06:50:55;;;;;;;2.20;0.75;;;;;;;;;;5089443;27;20035;-78
2022/04/01 06:53:21;;;;;;;0.90;0.55;;;;;;;;;;5104444;27;20059;-72
2022/04/01 06:55:48;;;;;;;1.10;0.77;;;;;;;;;;5105948;27;20367;-73
2022/04/01 06:58:14;;;;;;;2.05;1.17;;;;;;;;;;5105540;27;20051;-79
2022/04/01 07:00:43;;;;;;;6.05;0.90;;;;;;;;;;5104603;27;20078;-77
2022/04/01 07:03:10;;;;;;;5.38;1.00;;;;;;;;;;5088171;27;20101;-77
2022/04/01 07:05:36;;;;;;;1.42;0.85;;;;;;;;;;5104603;27;20047;-73
2022/04/01 07:08:03;;;;;;;0.85;0.65;;;;;;;;;;5088352;27;20060;-75
2022/04/01 07:10:30;;;;;;;3.65;0.68;;;;;;;;;;5105225;27;20043;-75
2022/04/01 07:12:56;;;;;;;2.90;1.00;;;;;;;;;;5107153;27;20517;-77
2022/04/01 07:15:22;;;;;;;1.90;1.20;;;;;;;;;;5104888;27;20043;-78
2022/04/01 07:17:48;;;;;;;1.13;0.82;;;;;;;;;;5105256;27;20379;-72
2022/04/01 07:20:15;;;;;;;1.77;1.42;;;;;;;;;;5086882;28;20042;-77
2022/04/01 07:22:41;;;;;;;2.63;0.73;;;;;;;;;;5116890;27;20047;-78
2022/04/01 07:25:08;;;;;;;0.85;0.75;;;;;;;;;;5117277;27;20512;-76
2022/04/01 07:27:34;;;;;;;2.00;1.00;;;;;;;;;;5116492;27;20138;-77
2022/04/01 07:30:00;;;;;;;1.23;0.70;;;;;;;;;;5116180;27;20130;-76
2022/04/01 07:32:32;;;;;;;2.22;1.27;;;;;;;;;;5117544;27;20043;-75
2022/04/01 07:34:58;;;;;;;1.45;1.20;;;;;;;;;;5116384;27;20395;-75
2022/04/01 07:37:25;;;;;;;2.40;0.70;;;;;;;;;;5117107;27;20078;-76
2022/04/01 07:39:54;;;;;;;2.72;1.23;;;;;;;;;;5116623;27;20088;-70
2022/04/01 07:42:21;;;;;;;1.95;1.15;;;;;;;;;;5097141;28;20056;-76
2022/04/01 07:44:48;;;;;;;2.33;1.00;;;;;;;;;;5077272;28;20089;-72
2022/04/01 07:47:14;;;;;;;2.88;1.30;;;;;;;;;;5076148;28;20047;-71
2022/04/01 07:49:41;;;;;;;1.60;0.90;;;;;;;;;;5075873;28;20434;-75
2022/04/01 07:52:08;;;;;;;3.60;0.98;;;;;;;;;;5092726;28;20040;-76
2022/04/01 07:54:35;;;;;;;1.73;0.93;;;;;;;;;;5092772;28;20048;-76
2022/04/01 07:57:01;;;;;;;1.15;1.00;;;;;;;;;;5076848;28;20044;-76
2022/04/01 07:59:27;;;;;;;1.70;1.00;;;;;;;;;;5093938;28;20090;-78
2022/04/01 08:01:53;;;;;;;3.58;1.27;;;;;;;;;;5092918;28;20072;-76
2022/04/01 08:04:19;;;;;;;2.03;1.25;;;;;;;;;;5072691;28;20047;-77
2022/04/01 08:06:45;;;;;;;2.35;1.75;;;;;;;;;;5071529;28;20040;-74
2022/04/01 08:09:11;;;;;;;2.55;1.92;;;;;;;;;;5070874;28;20134;-73
2022/04/01 08:11:37;;;;;;;3.67;1.92;;;;;;;;;;5071577;28;20467;-73
2022/04/01 08:14:03;;;;;;;3.10;1.95;;;;;;;;;;5087646;28;20040;-77
2022/04/01 08:16:29;;;;;;;2.83;1.83;;;;;;;;;;5071072;28;20398;-76
2022/04/01 08:18:55;;;;;;;8.90;1.80;;;;;;;;;;5087041;28;20047;-75
2022/04/01 08:21:21;;;;;;;5.00;2.58;;;;;;;;;;5087374;28;20051;-75
2022/04/01 08:23:47;;;;;;;4.35;2.67;;;;;;;;;;5070737;28;20043;-72
2022/04/01 08:26:13;;;;;;;2.55;2.25;;;;;;;;;;5088112;28;20044;-68
2022/04/01 08:28:40;;;;;;;3.17;2.05;;;;;;;;;;5070922;28;20137;-72
2022/04/01 08:31:09;;;;;;;4.68;2.80;;;;;;;;;;5071130;28;20056;-78
2022/04/01 08:33:36;;;;;;;3.08;2.22;;;;;;;;;;5087583;28;20050;-73
2022/04/01 08:36:03;;;;;;;4.22;2.67;;;;;;;;;;5071082;28;20139;-76
2022/04/01 08:38:29;;;;;;;5.07;3.75;;;;;;;;;;5087633;28;20040;-74
2022/04/01 08:40:55;;;;;;;7.20;3.30;;;;;;;;;;5078266;27;20543;-73
2022/04/01 08:43:26;;;;;;;2.80;2.42;;;;;;;;;;5111076;27;20485;-72
2022/04/01 08:45:52;;;;;;;8.90;3.90;;;;;;;;;;5110480;27;20048;-76
2022/04/01 08:48:18;;;;;;;5.60;3.25;;;;;;;;;;5111362;27;20042;-76
2022/04/01 08:50:44;;;;;;;5.38;3.28;;;;;;;;;;5111149;27;20508;-76
2022/04/01 08:53:10;;;;;;;10.10;3.88;;;;;;;;;;5110820;27;20432;-71
2022/04/01 08:55:37;;;;;;;3.60;2.60;;;;;;;;;;5111030;27;20075;-73
2022/04/01 08:58:03;;;;;;;6.47;2.85;;;;;;;;;;5110859;27;20045;-78
2022/04/01 09:00:30;;;;;;;7.30;3.70;;;;;;;;;;5110816;27;20042;-77
2022/04/01 09:03:00;;;;;;;5.78;3.85;;;;;;;;;;5111194;28;20039;-79
2022/04/01 09:05:26;;;;;;;4.13;2.35;;;;;;;;;;5111114;27;20065;-73
2022/04/01 09:08:03;;;;;;;8.80;4.45;;;;;;;;;;5111157;28;20039;-76
2022/04/01 09:10:29;;;;;;;8.85;3.42;;;;;;;;;;5110406;28;20043;-73
2022/04/01 09:12:55;;;;;;;2.33;1.60;;;;;;;;;;5110704;28;20042;-73
2022/04/01 09:15:21;;;;;;;2.67;2.08;;;;;;;;;;5110760;28;20042;-71
2022/04/01 09:17:48;;;;;;;8.77;3.65;;;;;;;;;;5110738;28;20043;-74
2022/04/01 09:20:14;;;;;;;3.42;2.88;;;;;;;;;;5110947;28;20039;-73
2022/04/01 09:22:42;;;;;;;3.40;2.60;;;;;;;;;;5110411;28;20034;-73
2022/04/01 09:25:09;;;;;;;5.70;3.15;;;;;;;;;;5110622;28;20074;-71
2022/04/01 09:27:46;;;;;;;5.38;2.58;;;;;;;;;;5110375;28;20087;-76
2022/04/01 09:30:23;;;;;;;4.47;3.28;;;;;;;;;;5113034;27;20149;-70
2022/04/01 09:32:55;;;;;;;5.43;3.17;;;;;;;;;;5114646;27;20039;-72
2022/04/01 09:35:23;;;;;;;4.60;3.03;;;;;;;;;;5114854;27;20047;-75
2022/04/01 09:37:50;;;;;;;5.15;2.97;;;;;;;;;;5114683;27;20126;-74
2022/04/01 09:40:22;;;;;;;4.90;3.05;;;;;;;;;;5114269;27;20078;-76
2022/04/01 09:42:48;;;;;;;3.67;2.00;;;;;;;;;;5113858;27;20082;-71
2022/04/01 09:45:18;;;;;;;4.75;3.38;;;;;;;;;;5114395;27;20081;-72
2022/04/01 09:47:45;;;;;;;3.43;2.40;;;;;;;;;;5114750;27;20586;-76
2022/04/01 09:50:13;;;;;;;3.97;2.72;;;;;;;;;;5114708;27;20285;-77
2022/04/01 09:52:40;;;;;;;4.57;2.65;;;;;;;;;;5114492;27;20128;-74
2022/04/01 09:55:07;;;;;;;3.15;2.35;;;;;;;;;;5114511;27;20046;-74
2022/04/01 09:57:34;;;;;;;3.75;2.75;;;;;;;;;;5114292;27;20134;-77
2022/04/01 10:00:00;;;;;;;6.47;3.30;;;;;;;;;;5114670;27;20035;-72
2022/04/01 10:02:26;;;;;;;2.78;2.08;;;;;;;;;;5114372;27;20042;-69
2022/04/01 10:04:54;;;;;;;2.03;1.80;;;;;;;;;;5114277;27;20534;-74
2022/04/01 10:07:22;;;;;;;4.82;1.73;;;;;;;;;;5114080;27;20474;-74
2022/04/01 10:09:50;;;;;;;5.20;2.28;;;;;;;;;;5114136;27;20043;-70
2022/04/01 10:12:18;;;;;;;2.67;2.17;;;;;;;;;;5114036;27;20095;-72
2022/04/01 10:14:45;;;;;;;2.95;2.03;;;;;;;;;;5114049;27;20047;-77
2022/04/01 10:17:11;;;;;;;1.20;1.02;;;;;;;;;;5114553;27;20512;-75
2022/04/01 10:19:43;;;;;;;5.88;3.63;;;;;;;;;;5114753;27;20486;-76
2022/04/01 10:22:11;;;;;;;3.13;2.15;;;;;;;;;;5113477;27;20554;-72
2022/04/01 10:24:58;;;;;;;3.72;1.88;;;;;;;;;;5114125;27;20063;-77
2022/04/01 10:27:33;;;;;;;4.82;2.10;;;;;;;;;;5114087;27;20074;-76
2022/04/01 10:29:59;;;;;;;5.03;2.25;;;;;;;;;;5115512;27;20035;-77
2022/04/01 10:32:25;;;;;;;2.88;1.67;;;;;;;;;;5114719;27;20099;-77
2022/04/01 10:34:53;;;;;;;3.47;1.60;;;;;;;;;;5114037;27;20051;-77
2022/04/01 10:37:21;;;;;;;2.75;1.58;;;;;;;;;;5113561;27;20047;-77
2022/04/01 10:39:58;;;;;;;2.28;1.70;;;;;;;;;;5113584;27;20380;-75
2022/04/01 10:42:34;;;;;;;2.30;1.55;;;;;;;;;;5112601;27;20059;-75
2022/04/01 10:45:02;;;;;;;3.10;1.85;;;;;;;;;;5113072;27;20074;-76
2022/04/01 10:53:37;;;;;;;5.20;2.10;;;;;;;;;;5113314;27;20100;-76
2022/04/01 10:56:21;;;;;;;2.20;1.83;;;;;;;;;;5113485;27;20455;-69
2022/04/01 10:59:06;;;;;;;2.70;1.63;;;;;;;;;;5113245;27;20536;-75
2022/04/01 11:01:34;;;;;;;4.47;1.67;;;;;;;;;;5113996;27;20047;-75
2022/04/01 11:04:20;;;;;;;1.50;1.17;;;;;;;;;;5113212;27;20057;-77
2022/04/01 11:06:57;;;;;;;1.42;1.33;;;;;;;;;;5095634;27;20270;-75
2022/04/01 11:09:39;;;;;;;1.73;1.00;;;;;;;;;;5112655;27;20036;-76
2022/04/01 11:12:19;;;;;;;1.77;1.42;;;;;;;;;;5113057;27;20121;-73
2022/04/01 11:14:56;;;;;;;1.95;1.55;;;;;;;;;;5113275;27;20482;-72
2022/04/01 11:17:24;;;;;;;3.50;1.95;;;;;;;;;;5113045;27;20079;-72
2022/04/01 11:20:00;;;;;;;1.17;0.90;;;;;;;;;;5113107;27;20039;-75
2022/04/01 11:22:42;;;;;;;3.78;1.45;;;;;;;;;;5112549;27;20439;-78
2022/04/01 11:25:12;;;;;;;1.67;1.05;;;;;;;;;;5113580;27;20033;-77
2022/04/01 11:27:57;;;;;;;3.78;1.48;;;;;;;;;;5113195;27;20046;-74
2022/04/01 11:30:33;;;;;;;1.95;1.00;;;;;;;;;;5112778;27;20047;-69
2022/04/01 11:33:00;;;;;;;5.00;1.20;;;;;;;;;;5112407;27;20038;-74
2022/04/01 11:35:28;;;;;;;1.25;0.88;;;;;;;;;;5113198;27;20043;-74
2022/04/01 11:37:54;;;;;;;3.67;1.52;;;;;;;;;;5112332;27;20125;-74
2022/04/01 11:40:25;;;;;;;1.73;1.02;;;;;;;;;;5112473;27;20080;-74
2022/04/01 11:42:58;;;;;;;2.78;1.23;;;;;;;;;;5112144;27;20116;-75
2022/04/01 11:45:30;;;;;;;2.05;1.50;;;;;;;;;;5112006;27;20043;-75
2022/04/01 11:47:56;;;;;;;5.07;1.33;;;;;;;;;;5112608;27;20054;-75
2022/04/01 11:50:23;;;;;;;1.15;0.93;;;;;;;;;;5112117;27;20039;-80
2022/04/01 11:52:52;;;;;;;2.17;1.02;;;;;;;;;;5112401;27;20146;-74
2022/04/01 11:55:22;;;;;;;7.45;1.98;;;;;;;;;;5112131;27;20072;-74
2022/04/01 11:57:49;;;;;;;1.95;1.20;;;;;;;;;;5111355;27;20573;-76
2022/04/01 12:00:19;;;;;;;2.78;1.25;;;;;;;;;;5112032;27;20050;-76
2022/04/01 12:02:46;;;;;;;2.88;1.17;;;;;;;;;;5113477;27;20051;-76
2022/04/01 12:05:13;;;;;;;5.78;1.20;;;;;;;;;;5113724;27;20046;-72
2022/04/01 12:10:27;;;;;;;2.28;1.17;;;;;;;;;;5112182;27;20454;-74
2022/04/01 12:12:54;;;;;;;5.20;1.05;;;;;;;;;;5111795;27;20489;-74
2022/04/01 12:15:29;;;;;;;5.60;1.42;;;;;;;;;;5110875;27;20430;-75
2022/04/01 12:17:55;;;;;;;4.65;2.00;;;;;;;;;;5113609;27;20066;-79
2022/04/01 12:20:21;;;;;;;3.92;1.40;;;;;;;;;;5112655;27;20095;-74
2022/04/01 12:22:50;;;;;;;2.17;1.65;;;;;;;;;;5112053;27;20138;-74
2022/04/01 12:25:16;;;;;;;2.83;1.20;;;;;;;;;;5111384;27;20045;-79
2022/04/01 12:27:55;;;;;;;3.15;1.50;;;;;;;;;;5111320;27;20035;-77
2022/04/01 12:30:40;;;;;;;4.00;2.03;;;;;;;;;;5112554;27;20043;-77
2022/04/01 12:33:07;;;;;;;1.35;0.75;;;;;;;;;;5112071;27;20064;-79
2022/04/01 12:35:34;;;;;;;0.70;0.57;;;;;;;;;;5111605;27;20054;-78
2022/04/01 12:38:04;;;;;;;4.53;1.58;;;;;;;;;;5111957;27;20237;-75
2022/04/01 12:40:34;;;;;;;2.95;1.83;;;;;;;;;;5112236;27;20039;-77
2022/04/01 12:43:00;;;;;;;1.58;1.08;;;;;;;;;;5111608;27;20047;-78
2022/04/01 12:45:26;;;;;;;1.73;0.98;;;;;;;;;;5111993;27;20043;-77
2022/04/01 12:47:52;;;;;;;2.90;1.35;;;;;;;;;;5112688;27;20103;-78
2022/04/01 12:50:34;;;;;;;2.45;1.60;;;;;;;;;;5110915;27;20051;-74
2022/04/01 12:53:10;;;;;;;3.28;1.58;;;;;;;;;;5111453;27;20448;-78
2022/04/01 12:55:36;;;;;;;1.15;1.02;;;;;;;;;;5111031;27;20043;-77
2022/04/01 12:58:04;;;;;;;6.47;2.10;;;;;;;;;;5111209;27;20133;-77
2022/04/01 13:00:30;;;;;;;2.60;1.20;;;;;;;;;;5111103;28;20051;-73
2022/04/01 13:03:01;;;;;;;1.63;1.25;;;;;;;;;;5110563;27;20055;-72
2022/04/01 13:05:27;;;;;;;4.05;1.35;;;;;;;;;;5110752;27;20035;-72
2022/04/01 13:07:53;;;;;;;2.08;1.27;;;;;;;;;;5110860;28;20049;-72
2022/04/01 13:10:21;;;;;;;5.13;1.30;;;;;;;;;;5110771;27;20046;-71
2022/04/01 13:12:47;;;;;;;0.70;0.70;;;;;;;;;;5111339;28;20054;-70
2022/04/01 13:15:15;;;;;;;1.88;1.40;;;;;;;;;;5110524;28;20078;-74
2022/04/01 13:17:42;;;;;;;1.50;1.20;;;;;;;;;;5110647;28;20039;-69
2022/04/01 13:20:10;;;;;;;2.25;1.00;;;;;;;;;;5110814;28;20069;-71
2022/04/01 13:22:36;;;;;;;1.70;1.15;;;;;;;;;;5110690;28;20043;-70
2022/04/01 13:25:02;;;;;;;2.25;1.30;;;;;;;;;;5110708;28;20111;-73
2022/04/01 13:27:27;;;;;;;3.85;1.20;;;;;;;;;;5110208;28;20042;-71
2022/04/01 13:29:54;;;;;;;8.55;1.80;;;;;;;;;;5110360;28;20410;-76
2022/04/01 13:32:20;;;;;;;1.88;1.40;;;;;;;;;;5110848;28;20479;-72
2022/04/01 13:34:46;;;;;;;1.73;1.30;;;;;;;;;;5110667;28;20047;-71
2022/04/01 13:37:12;;;;;;;1.95;1.25;;;;;;;;;;5110825;28;20406;-73
2022/04/01 13:39:39;;;;;;;2.80;1.45;;;;;;;;;;5110299;28;20134;-71
2022/04/01 13:42:05;;;;;;;2.63;1.00;;;;;;;;;;5094859;28;20052;-77
2022/04/01 13:44:31;;;;;;;1.17;0.90;;;;;;;;;;5070067;28;20071;-73
2022/04/01 13:46:58;;;;;;;3.03;1.00;;;;;;;;;;5070198;28;20040;-72
2022/04/01 13:49:24;;;;;;;2.05;1.13;;;;;;;;;;5070095;28;20391;-76
2022/04/01 13:51:52;;;;;;;3.63;1.30;;;;;;;;;;5069404;28;20040;-72
2022/04/01 13:54:19;;;;;;;0.90;0.90;;;;;;;;;;5086845;28;20174;-76
2022/04/01 13:56:45;;;;;;;1.15;0.80;;;;;;;;;;5086707;28;20077;-75
2022/04/01 13:59:12;;;;;;;1.67;0.90;;;;;;;;;;5086714;28;20525;-71
2022/04/01 14:01:38;;;;;;;3.55;1.52;;;;;;;;;;5069909;28;20805;-73
2022/04/01 14:04:04;;;;;;;3.47;1.35;;;;;;;;;;5069264;28;20051;-71
2022/04/01 14:06:31;;;;;;;6.43;1.40;;;;;;;;;;5086757;28;20573;-72
2022/04/01 14:08:57;;;;;;;2.28;1.27;;;;;;;;;;5086767;28;20048;-72
2022/04/01 14:11:24;;;;;;;1.60;0.80;;;;;;;;;;5069517;28;20052;-77
2022/04/01 14:13:50;;;;;;;2.40;1.50;;;;;;;;;;5069910;28;20074;-73
2022/04/01 14:16:16;;;;;;;2.15;1.45;;;;;;;;;;5069871;28;20461;-73
2022/04/01 14:18:43;;;;;;;3.20;1.30;;;;;;;;;;5090091;28;20036;-75
2022/04/01 14:21:09;;;;;;;2.53;1.20;;;;;;;;;;5089929;28;20048;-72
2022/04/01 14:23:36;;;;;;;5.80;2.00;;;;;;;;;;5090231;28;20075;-73
2022/04/01 14:26:04;;;;;;;2.95;1.50;;;;;;;;;;5072854;28;20547;-72
2022/04/01 14:28:37;;;;;;;3.20;1.20;;;;;;;;;;5073147;28;20506;-73
2022/04/01 14:31:04;;;;;;;1.88;1.20;;;;;;;;;;5072943;28;20070;-71
2022/04/01 14:33:31;;;;;;;2.22;1.23;;;;;;;;;;5089658;28;20036;-71
2022/04/01 14:35:57;;;;;;;4.93;1.50;;;;;;;;;;5073155;28;20044;-74
2022/04/01 14:38:23;;;;;;;5.57;1.65;;;;;;;;;;5072928;28;20048;-76
2022/04/01 14:40:50;;;;;;;3.08;1.67;;;;;;;;;;5092311;27;20557;-71
2022/04/01 14:43:16;;;;;;;2.40;1.42;;;;;;;;;;5113209;27;20423;-75
2022/04/01 14:45:42;;;;;;;2.53;1.23;;;;;;;;;;5113512;27;20035;-72
2022/04/01 14:48:08;;;;;;;2.10;0.90;;;;;;;;;;5113196;27;20526;-72
2022/04/01 14:50:36;;;;;;;2.35;1.50;;;;;;;;;;5112924;27;20133;-73
2022/04/01 14:53:02;;;;;;;3.35;1.25;;;;;;;;;;5113259;27;20493;-73
2022/04/01 14:55:28;;;;;;;3.97;1.33;;;;;;;;;;5113550;27;20043;-73
2022/04/01 14:57:55;;;;;;;4.78;1.42;;;;;;;;;;5113129;27;20439;-73
2022/04/01 15:00:21;;;;;;;2.78;1.23;;;;;;;;;;5113045;27;20046;-71
2022/04/01 15:02:47;;;;;;;2.45;1.42;;;;;;;;;;5112496;27;20041;-69
2022/04/01 15:05:13;;;;;;;4.95;1.60;;;;;;;;;;5112945;27;20074;-72